Time;durP1;ratioP1;P1;durP2;ratioP2;P2;SDS_P1;SDS_P2;PMS_P1;PMS_P2;Temp;Humidity;BMP_temperature;BMP_pressure;BME280_temperature;BME280_humidity;BME280_pressure;Samples;Min_cycle;Max_cycle;Signal;HPM_P1;HPM_P2
2021/05/20 00:01:25;;;;;;;0.10;0.10;;;15.70;84.50;;;;;;4209120;28;20455;-48
2021/05/20 00:03:47;;;;;;;0.20;0.20;;;15.60;84.50;;;;;;4209129;28;20051;-48
2021/05/20 00:06:09;;;;;;;0.90;0.47;;;15.60;85.30;;;;;;4205734;28;20094;-47
2021/05/20 00:08:31;;;;;;;0.28;0.28;;;15.60;84.50;;;;;;4192404;28;20521;-48
2021/05/20 00:10:53;;;;;;;0.75;0.75;;;15.70;84.50;;;;;;4192371;28;20505;-48
2021/05/20 00:13:14;;;;;;;0.75;0.75;;;15.60;84.50;;;;;;4192376;28;20468;-47
2021/05/20 00:15:36;;;;;;;1.52;1.48;;;15.60;84.60;;;;;;4191937;28;20083;-47
2021/05/20 00:17:58;;;;;;;1.13;1.02;;;15.60;85.40;;;;;;4191855;28;20479;-46
2021/05/20 00:20:19;;;;;;;0.00;0.00;;;15.60;84.60;;;;;;4190524;28;20403;-50
2021/05/20 00:22:42;;;;;;;0.57;0.57;;;15.60;84.60;;;;;;4194210;28;20094;-47
2021/05/20 00:25:05;;;;;;;0.15;0.15;;;15.60;84.50;;;;;;4192389;28;20123;-48
2021/05/20 00:27:27;;;;;;;2.60;0.65;;;15.60;84.50;;;;;;4192112;28;20048;-46
2021/05/20 00:29:49;;;;;;;0.08;0.08;;;15.60;84.50;;;;;;4203298;28;20044;-47
2021/05/20 00:32:11;;;;;;;0.10;0.10;;;15.60;84.50;;;;;;4208629;28;20048;-48
2021/05/20 00:34:32;;;;;;;0.20;0.20;;;15.60;84.60;;;;;;4208488;28;21137;-50
2021/05/20 00:36:53;;;;;;;;;;;15.60;84.50;;;;;;4197770;28;20052;-52
2021/05/20 00:39:16;;;;;;;;;;;15.50;84.50;;;;;;4192488;28;20338;-50
2021/05/20 00:41:38;;;;;;;0.00;0.00;;;15.50;84.50;;;;;;4192179;28;20024;-49
2021/05/20 00:43:59;;;;;;;0.45;0.45;;;15.50;84.50;;;;;;4192796;28;20494;-49
2021/05/20 00:46:21;;;;;;;0.20;0.20;;;15.50;84.50;;;;;;4191538;28;20079;-49
2021/05/20 00:48:42;;;;;;;0.00;0.00;;;15.50;85.50;;;;;;4191729;28;20067;-46
2021/05/20 00:51:04;;;;;;;0.55;0.55;;;15.50;84.60;;;;;;4191207;28;20044;-45
2021/05/20 00:53:26;;;;;;;0.00;0.00;;;15.50;84.60;;;;;;4191442;28;20044;-49
2021/05/20 00:55:50;;;;;;;0.00;0.00;;;15.50;84.60;;;;;;4176347;28;20051;-47
2021/05/20 00:58:12;;;;;;;0.50;0.50;;;15.50;84.60;;;;;;4174985;28;20059;-48
2021/05/20 01:00:34;;;;;;;0.00;0.00;;;15.50;84.60;;;;;;4174835;28;20103;-45
2021/05/20 01:02:56;;;;;;;0.95;0.70;;;15.50;84.60;;;;;;4191498;28;20118;-50
2021/05/20 01:05:17;;;;;;;0.60;0.60;;;15.50;84.60;;;;;;4174793;28;20040;-47
2021/05/20 01:07:39;;;;;;;0.43;0.20;;;15.50;84.60;;;;;;4174627;28;20134;-49
2021/05/20 01:10:02;;;;;;;0.20;0.20;;;15.50;84.60;;;;;;4187273;28;20044;-47
2021/05/20 01:12:25;;;;;;;0.20;0.20;;;15.50;84.60;;;;;;4191494;28;20052;-49
2021/05/20 01:14:47;;;;;;;1.10;0.95;;;15.40;84.60;;;;;;4192088;28;20055;-48
2021/05/20 01:17:09;;;;;;;0.20;0.20;;;15.40;84.70;;;;;;4192184;28;20098;-50
2021/05/20 01:19:31;;;;;;;0.43;0.28;;;15.40;84.60;;;;;;4191200;28;20055;-47
2021/05/20 01:21:53;;;;;;;0.10;0.10;;;15.40;84.70;;;;;;4191229;28;20513;-51
2021/05/20 01:24:15;;;;;;;1.15;1.05;;;15.40;84.70;;;;;;4196497;28;20044;-50
2021/05/20 01:26:36;;;;;;;;;;;15.40;84.70;;;;;;4206265;28;20087;-50
2021/05/20 01:28:58;;;;;;;;;;;15.40;84.80;;;;;;4202151;28;19978;-49
2021/05/20 01:31:19;;;;;;;0.50;0.50;;;15.40;84.80;;;;;;4190960;28;20026;-47
2021/05/20 01:33:40;;;;;;;;;;;15.40;84.70;;;;;;4191469;28;20527;-48
2021/05/20 01:36:04;;;;;;;0.10;0.10;;;15.40;84.90;;;;;;4194642;28;19927;-48
2021/05/20 01:38:44;;;;;;;0.70;0.60;;;15.30;84.80;;;;;;4207868;28;20127;-46
2021/05/20 01:41:08;;;;;;;0.22;0.22;;;15.40;84.80;;;;;;4207275;28;20040;-50
2021/05/20 01:43:31;;;;;;;0.65;0.47;;;15.30;84.80;;;;;;4205564;28;20409;-48
2021/05/20 01:45:57;;;;;;;0.00;0.00;;;15.40;84.80;;;;;;4191358;28;20056;-47
2021/05/20 01:48:19;;;;;;;2.38;1.75;;;15.30;84.80;;;;;;4190638;28;20052;-45
2021/05/20 01:50:41;;;;;;;0.80;0.50;;;15.40;84.90;;;;;;4191060;28;20122;-48
2021/05/20 01:53:02;;;;;;;0.00;0.00;;;15.40;84.80;;;;;;4191092;28;20042;-50
2021/05/20 01:55:25;;;;;;;0.43;0.43;;;15.30;84.80;;;;;;4207356;28;20044;-48
2021/05/20 01:57:46;;;;;;;0.15;0.15;;;15.40;84.90;;;;;;4207680;28;20490;-46
2021/05/20 02:00:09;;;;;;;0.00;0.00;;;15.40;84.90;;;;;;4207167;28;20044;-50
2021/05/20 02:02:30;;;;;;;0.10;0.10;;;15.30;84.80;;;;;;4207505;28;20047;-51
2021/05/20 02:04:52;;;;;;;4.03;1.05;;;15.30;84.80;;;;;;4190627;28;20064;-50
2021/05/20 02:07:13;;;;;;;0.25;0.25;;;15.30;84.80;;;;;;4176961;28;20057;-48
2021/05/20 02:09:35;;;;;;;0.00;0.00;;;15.30;84.80;;;;;;4174112;28;20060;-50
2021/05/20 02:11:58;;;;;;;0.00;0.00;;;15.30;84.90;;;;;;4174247;28;20103;-48
2021/05/20 02:14:19;;;;;;;0.70;0.70;;;15.30;84.90;;;;;;4189482;28;20056;-45
2021/05/20 02:16:41;;;;;;;0.95;0.30;;;15.30;85.00;;;;;;4192126;28;20037;-47
2021/05/20 02:19:03;;;;;;;0.00;0.00;;;15.20;84.90;;;;;;4193642;28;20110;-53
2021/05/20 02:21:25;;;;;;;0.10;0.10;;;15.30;84.90;;;;;;4193426;28;20045;-50
2021/05/20 02:23:46;;;;;;;0.00;0.00;;;15.30;84.90;;;;;;4195765;28;20124;-45
2021/05/20 02:26:08;;;;;;;0.35;0.35;;;15.20;84.90;;;;;;4191040;28;20056;-48
2021/05/20 02:28:31;;;;;;;1.20;1.20;;;15.20;84.90;;;;;;4193127;28;20688;-48
2021/05/20 02:30:53;;;;;;;0.00;0.00;;;15.20;84.90;;;;;;4207509;28;20514;-49
2021/05/20 02:33:14;;;;;;;0.28;0.28;;;15.20;85.00;;;;;;4207515;28;20063;-52
2021/05/20 02:35:36;;;;;;;0.20;0.20;;;15.20;84.90;;;;;;4200627;28;20063;-49
2021/05/20 02:37:58;;;;;;;0.20;0.20;;;15.20;84.90;;;;;;4190611;28;20079;-52
2021/05/20 02:40:19;;;;;;;0.22;0.22;;;15.20;84.90;;;;;;4190634;28;20062;-46
2021/05/20 02:42:41;;;;;;;0.20;0.20;;;15.20;85.00;;;;;;4190277;28;20052;-50
2021/05/20 02:45:06;;;;;;;0.75;0.75;;;15.20;85.00;;;;;;4206310;28;20044;-46
2021/05/20 02:47:27;;;;;;;0.05;0.05;;;15.20;85.00;;;;;;4206071;28;20063;-48
2021/05/20 02:49:49;;;;;;;0.90;0.90;;;15.20;85.00;;;;;;4205794;28;20166;-46
2021/05/20 02:52:11;;;;;;;2.47;1.15;;;15.20;85.00;;;;;;4190436;28;20044;-48
2021/05/20 02:54:33;;;;;;;0.20;0.20;;;15.20;85.00;;;;;;4190521;28;20056;-47
2021/05/20 02:56:54;;;;;;;;;;;15.10;85.00;;;;;;4191141;28;20147;-51
2021/05/20 02:59:16;;;;;;;0.10;0.10;;;15.10;85.00;;;;;;4201057;28;19974;-48
2021/05/20 03:01:42;;;;;;;0.50;0.50;;;15.10;85.00;;;;;;4209661;28;20101;-51
2021/05/20 03:04:04;;;;;;;0.03;0.03;;;15.10;85.00;;;;;;4210073;28;20105;-51
2021/05/20 03:06:25;;;;;;;0.30;0.30;;;15.10;85.10;;;;;;4210120;28;20091;-51
2021/05/20 03:08:47;;;;;;;0.20;0.20;;;15.10;85.00;;;;;;4202840;28;20137;-46
2021/05/20 03:11:09;;;;;;;0.17;0.17;;;15.10;85.00;;;;;;4193231;28;20041;-51
2021/05/20 03:13:30;;;;;;;0.82;0.32;;;15.10;85.00;;;;;;4198077;28;20052;-47
2021/05/20 03:15:52;;;;;;;0.00;0.00;;;15.10;85.00;;;;;;4198177;28;20056;-46
2021/05/20 03:18:14;;;;;;;;;;;15.10;85.00;;;;;;4193980;28;20052;-45
2021/05/20 03:20:35;;;;;;;0.08;0.08;;;15.10;85.00;;;;;;4192980;28;20011;-47
2021/05/20 03:22:57;;;;;;;0.22;0.22;;;15.10;85.00;;;;;;4193171;28;20122;-49
2021/05/20 03:25:19;;;;;;;0.40;0.40;;;15.10;85.20;;;;;;4193076;28;20052;-48
2021/05/20 03:27:41;;;;;;;0.20;0.20;;;15.10;85.40;;;;;;4192932;28;20044;-49
2021/05/20 03:30:02;;;;;;;0.00;0.00;;;15.10;85.20;;;;;;4209602;28;20426;-51
2021/05/20 03:32:24;;;;;;;0.93;0.93;;;15.10;85.20;;;;;;4209562;28;20528;-50
2021/05/20 03:34:47;;;;;;;0.20;0.20;;;15.10;85.20;;;;;;4205153;28;20044;-49
2021/05/20 03:37:09;;;;;;;0.10;0.10;;;15.10;85.20;;;;;;4192793;28;20049;-46
2021/05/20 03:39:30;;;;;;;0.00;0.00;;;15.10;85.10;;;;;;4192952;28;20045;-46
2021/05/20 03:41:52;;;;;;;0.52;0.52;;;15.10;85.20;;;;;;4177233;28;20693;-47
2021/05/20 03:44:14;;;;;;;0.38;0.38;;;15.10;85.20;;;;;;4189415;28;20044;-48
2021/05/20 03:46:35;;;;;;;;;;;15.00;85.20;;;;;;4195533;28;20052;-48
2021/05/20 03:48:57;;;;;;;0.38;0.38;;;15.10;85.30;;;;;;4194167;28;19959;-47
2021/05/20 03:51:19;;;;;;;0.35;0.35;;;15.00;85.20;;;;;;4194060;28;20693;-48
2021/05/20 03:53:41;;;;;;;0.10;0.10;;;15.00;85.20;;;;;;4202219;28;20083;-48
2021/05/20 03:56:03;;;;;;;0.10;0.10;;;15.00;85.20;;;;;;4208252;28;20089;-47
2021/05/20 03:58:26;;;;;;;0.00;0.00;;;15.00;85.30;;;;;;4177338;28;20060;-50
2021/05/20 04:00:48;;;;;;;0.22;0.22;;;15.00;85.30;;;;;;4175968;28;20579;-52
2021/05/20 04:03:10;;;;;;;0.00;0.00;;;15.00;85.30;;;;;;4175898;28;20496;-48
2021/05/20 04:05:31;;;;;;;0.28;0.28;;;15.00;85.40;;;;;;4175879;28;20048;-47
2021/05/20 04:07:54;;;;;;;0.10;0.10;;;15.00;85.30;;;;;;4192084;28;20075;-48
2021/05/20 04:10:16;;;;;;;0.20;0.20;;;15.00;85.30;;;;;;4181625;28;20670;-48
2021/05/20 04:12:38;;;;;;;0.20;0.20;;;15.00;85.30;;;;;;4175153;28;20057;-47
2021/05/20 04:14:59;;;;;;;0.70;0.52;;;15.00;85.50;;;;;;4181099;28;20067;-47
2021/05/20 04:17:21;;;;;;;0.03;0.03;;;15.00;85.60;;;;;;4175332;28;20071;-50
2021/05/20 04:19:43;;;;;;;0.20;0.20;;;15.00;85.40;;;;;;4175622;28;20041;-48
2021/05/20 04:22:05;;;;;;;0.47;0.47;;;15.00;85.30;;;;;;4175590;28;20068;-49
2021/05/20 04:24:27;;;;;;;0.03;0.03;;;15.10;85.30;;;;;;4175435;28;20430;-51
2021/05/20 04:26:49;;;;;;;0.17;0.17;;;15.00;85.20;;;;;;4192447;28;20152;-49
2021/05/20 04:29:11;;;;;;;0.00;0.00;;;15.10;85.30;;;;;;4180843;28;20511;-49
2021/05/20 04:31:33;;;;;;;0.47;0.47;;;15.10;85.10;;;;;;4177054;28;20545;-51
2021/05/20 04:33:55;;;;;;;0.30;0.30;;;15.10;85.10;;;;;;4179461;28;20525;-47
2021/05/20 04:36:17;;;;;;;1.92;1.00;;;15.10;85.00;;;;;;4191728;28;20553;-47
2021/05/20 04:38:38;;;;;;;0.10;0.10;;;15.10;85.00;;;;;;4188876;28;20040;-48
2021/05/20 04:41:01;;;;;;;0.15;0.15;;;15.10;84.90;;;;;;4191425;28;20048;-51
2021/05/20 04:43:22;;;;;;;0.10;0.10;;;15.10;84.90;;;;;;4185300;28;20096;-49
2021/05/20 04:45:46;;;;;;;0.00;0.00;;;15.10;85.70;;;;;;4191680;28;20723;-48
2021/05/20 04:48:09;;;;;;;0.43;0.43;;;15.10;84.90;;;;;;4191349;28;20094;-48
2021/05/20 04:50:30;;;;;;;0.85;0.63;;;15.10;85.00;;;;;;4191169;28;20601;-48
2021/05/20 04:52:52;;;;;;;0.00;0.00;;;15.10;84.90;;;;;;4174775;28;20095;-45
2021/05/20 04:55:18;;;;;;;0.15;0.15;;;15.10;85.00;;;;;;4207187;28;20528;-46
2021/05/20 04:57:41;;;;;;;0.00;0.00;;;15.10;85.00;;;;;;4206488;28;22327;-47
2021/05/20 05:00:05;;;;;;;0.22;0.22;;;15.10;85.00;;;;;;4191515;28;20048;-48
2021/05/20 05:02:27;;;;;;;0.00;0.00;;;15.10;85.00;;;;;;4191456;28;20094;-46
2021/05/20 05:04:49;;;;;;;0.50;0.50;;;15.10;85.00;;;;;;4191500;28;20055;-48
2021/05/20 05:07:10;;;;;;;0.00;0.00;;;15.10;85.00;;;;;;4191462;28;20141;-50
2021/05/20 05:09:32;;;;;;;0.08;0.08;;;15.00;85.00;;;;;;4191186;28;20414;-50
2021/05/20 05:11:54;;;;;;;0.75;0.75;;;15.10;85.00;;;;;;4197291;28;20055;-50
2021/05/20 05:14:16;;;;;;;0.20;0.20;;;15.10;85.00;;;;;;4192526;28;20054;-49
2021/05/20 05:16:38;;;;;;;0.55;0.55;;;15.10;84.90;;;;;;4191383;28;20566;-47
2021/05/20 05:18:59;;;;;;;0.45;0.45;;;15.10;84.90;;;;;;4191359;28;20097;-49
2021/05/20 05:21:21;;;;;;;0.05;0.05;;;15.10;84.90;;;;;;4191070;28;20119;-46
2021/05/20 05:23:43;;;;;;;0.03;0.03;;;15.20;84.90;;;;;;4190300;28;20048;-48
2021/05/20 05:26:05;;;;;;;0.00;0.00;;;15.20;84.70;;;;;;4191251;28;20117;-47
2021/05/20 05:28:27;;;;;;;0.08;0.08;;;15.20;85.00;;;;;;4182677;28;20057;-50
2021/05/20 05:30:49;;;;;;;0.43;0.43;;;15.20;85.00;;;;;;4193116;28;20044;-52
2021/05/20 05:33:11;;;;;;;7.53;2.72;;;15.20;85.20;;;;;;4207885;28;20048;-52
2021/05/20 05:35:33;;;;;;;0.00;0.00;;;15.30;85.00;;;;;;4207643;28;20486;-52
2021/05/20 05:37:54;;;;;;;0.75;0.75;;;15.40;84.60;;;;;;4203321;28;20098;-49
2021/05/20 05:40:15;;;;;;;;;;;15.40;85.00;;;;;;4190994;28;20052;-51
2021/05/20 05:42:37;;;;;;;0.40;0.40;;;15.50;85.50;;;;;;4190588;28;20016;-49
2021/05/20 05:44:59;;;;;;;0.10;0.10;;;15.50;85.00;;;;;;4191184;28;20072;-49
2021/05/20 05:47:21;;;;;;;0.10;0.10;;;15.50;84.60;;;;;;4194784;28;20128;-50
2021/05/20 05:49:46;;;;;;;1.88;0.82;;;15.60;84.50;;;;;;4202363;28;20046;-47
2021/05/20 05:52:09;;;;;;;0.00;0.00;;;15.60;84.40;;;;;;4191039;28;20079;-48
2021/05/20 05:54:30;;;;;;;0.30;0.30;;;15.60;84.30;;;;;;4191292;28;20133;-49
2021/05/20 05:56:52;;;;;;;0.00;0.00;;;15.60;85.00;;;;;;4190856;28;20499;-46
2021/05/20 05:59:14;;;;;;;0.00;0.00;;;15.60;83.90;;;;;;4190806;28;20045;-45
2021/05/20 06:01:36;;;;;;;2.55;1.10;;;15.70;83.80;;;;;;4192394;28;20512;-47
2021/05/20 06:04:00;;;;;;;0.00;0.00;;;15.70;83.70;;;;;;4197267;28;20471;-50
2021/05/20 06:06:21;;;;;;;0.47;0.47;;;15.70;83.40;;;;;;4207467;28;20047;-46
2021/05/20 06:08:43;;;;;;;0.20;0.20;;;15.70;83.40;;;;;;4206986;28;20574;-49
2021/05/20 06:11:06;;;;;;;0.10;0.10;;;15.70;83.20;;;;;;4201788;28;20053;-49
2021/05/20 06:13:27;;;;;;;0.00;0.00;;;15.80;83.10;;;;;;4187850;28;20387;-46
2021/05/20 06:15:49;;;;;;;0.52;0.52;;;15.80;83.00;;;;;;4190388;28;20056;-48
2021/05/20 06:18:11;;;;;;;0.00;0.00;;;15.80;82.80;;;;;;4203175;28;20176;-46
2021/05/20 06:20:34;;;;;;;0.00;0.00;;;15.90;82.40;;;;;;4195997;28;20053;-47
2021/05/20 06:22:55;;;;;;;0.40;0.40;;;15.90;82.10;;;;;;4179943;28;20045;-47
2021/05/20 06:25:17;;;;;;;0.32;0.32;;;15.90;81.90;;;;;;4174848;28;20102;-45
2021/05/20 06:27:38;;;;;;;0.35;0.35;;;15.90;81.90;;;;;;4174089;28;20418;-49
2021/05/20 06:29:59;;;;;;;;;;;15.90;81.90;;;;;;4177439;28;20518;-52
2021/05/20 06:32:21;;;;;;;0.32;0.32;;;15.90;81.90;;;;;;4198488;28;20532;-49
2021/05/20 06:34:43;;;;;;;1.05;1.05;;;15.90;82.30;;;;;;4196572;28;20063;-49
2021/05/20 06:37:05;;;;;;;0.82;0.77;;;15.90;85.30;;;;;;4192512;28;20048;-49
2021/05/20 06:39:28;;;;;;;0.35;0.35;;;16.00;87.40;;;;;;4176904;28;20056;-50
2021/05/20 06:41:50;;;;;;;0.32;0.32;;;16.10;86.90;;;;;;4178030;28;20059;-48
2021/05/20 06:44:11;;;;;;;1.20;1.05;;;16.20;87.10;;;;;;4193616;28;20388;-47
2021/05/20 06:46:34;;;;;;;0.70;0.70;;;16.20;85.50;;;;;;4193295;28;20532;-47
2021/05/20 06:48:56;;;;;;;0.10;0.10;;;16.20;84.70;;;;;;4181481;28;20083;-45
2021/05/20 06:51:17;;;;;;;0.17;0.17;;;16.30;84.40;;;;;;4189055;28;20111;-49
2021/05/20 06:53:47;;;;;;;1.33;1.30;;;16.40;83.90;;;;;;4183894;28;20045;-47
2021/05/20 06:56:16;;;;;;;4.68;1.55;;;16.40;83.50;;;;;;4180446;28;20106;-48
2021/05/20 07:01:17;;;;;;;0.10;0.10;;;16.40;82.90;;;;;;4197503;28;20052;-49
2021/05/20 07:03:39;;;;;;;0.00;0.00;;;16.50;82.60;;;;;;4192805;28;20080;-50
2021/05/20 07:06:00;;;;;;;0.82;0.82;;;16.60;82.20;;;;;;4199463;28;20048;-47
2021/05/20 07:08:23;;;;;;;0.20;0.20;;;16.60;81.80;;;;;;4201231;28;20052;-51
2021/05/20 07:10:45;;;;;;;0.38;0.38;;;16.70;81.70;;;;;;4209510;28;20047;-51
2021/05/20 07:13:07;;;;;;;0.43;0.43;;;16.70;81.20;;;;;;4200710;28;20048;-49
2021/05/20 07:15:29;;;;;;;0.00;0.00;;;16.70;80.90;;;;;;4193240;28;20499;-48
2021/05/20 07:17:51;;;;;;;0.30;0.30;;;16.80;81.40;;;;;;4178251;28;20053;-49
2021/05/20 07:20:14;;;;;;;0.65;0.65;;;16.80;80.60;;;;;;4194471;28;20056;-50
2021/05/20 07:22:36;;;;;;;2.47;2.28;;;16.80;80.30;;;;;;4187652;28;20060;-47
2021/05/20 07:25:02;;;;;;;0.40;0.40;;;16.90;79.60;;;;;;4176319;28;20052;-47
2021/05/20 07:27:24;;;;;;;2.70;0.55;;;16.90;79.30;;;;;;4180463;28;20411;-56
2021/05/20 07:29:46;;;;;;;0.13;0.13;;;16.90;79.30;;;;;;4197016;28;20058;-51
2021/05/20 07:32:09;;;;;;;0.25;0.25;;;17.00;79.20;;;;;;4194530;28;20088;-47
2021/05/20 07:34:32;;;;;;;1.35;1.25;;;16.90;79.30;;;;;;4193961;28;20410;-50
2021/05/20 07:36:54;;;;;;;0.10;0.10;;;17.00;78.70;;;;;;4192509;28;20060;-45
2021/05/20 07:39:15;;;;;;;0.10;0.10;;;17.00;78.70;;;;;;4192537;28;20050;-47
2021/05/20 07:41:37;;;;;;;0.00;0.00;;;17.00;78.40;;;;;;4180380;28;20132;-47
2021/05/20 07:44:00;;;;;;;0.40;0.40;;;17.10;78.40;;;;;;4187858;28;20064;-46
2021/05/20 07:46:22;;;;;;;0.00;0.00;;;17.00;78.50;;;;;;4189782;28;20131;-48
2021/05/20 07:48:44;;;;;;;0.00;0.00;;;17.00;78.50;;;;;;4192922;28;20056;-49
2021/05/20 07:51:08;;;;;;;0.25;0.25;;;16.90;78.60;;;;;;4177221;28;20041;-47
2021/05/20 07:53:30;;;;;;;0.08;0.08;;;16.90;78.30;;;;;;4176617;28;20049;-47
2021/05/20 07:55:52;;;;;;;0.00;0.00;;;16.90;78.30;;;;;;4188703;28;20056;-46
2021/05/20 07:58:14;;;;;;;0.00;0.00;;;16.90;78.10;;;;;;4207148;28;20089;-46
2021/05/20 08:00:36;;;;;;;0.52;0.52;;;16.90;78.30;;;;;;4192396;28;20051;-48
2021/05/20 08:03:02;;;;;;;0.00;0.00;;;16.90;78.90;;;;;;4202753;28;20056;-48
2021/05/20 08:05:29;;;;;;;0.00;0.00;;;16.90;79.60;;;;;;4203642;28;20651;-47
2021/05/20 08:07:55;;;;;;;0.00;0.00;;;16.90;78.00;;;;;;4205488;28;20055;-45
2021/05/20 08:10:38;;;;;;;0.08;0.08;;;16.80;77.60;;;;;;4208528;28;20066;-46
2021/05/20 08:13:00;;;;;;;0.30;0.30;;;16.80;78.30;;;;;;4206804;28;20039;-48
2021/05/20 08:15:22;;;;;;;0.00;0.00;;;16.80;78.70;;;;;;4209509;28;20410;-45
2021/05/20 08:17:44;;;;;;;0.17;0.17;;;16.80;78.20;;;;;;4204231;28;20047;-44
2021/05/20 08:20:07;;;;;;;0.10;0.10;;;16.80;77.70;;;;;;4193419;28;20083;-48
2021/05/20 08:22:30;;;;;;;0.10;0.10;;;16.90;77.20;;;;;;4205239;28;20505;-50
2021/05/20 08:24:53;;;;;;;0.20;0.20;;;16.90;77.00;;;;;;4179462;28;20045;-50
2021/05/20 08:27:15;;;;;;;0.17;0.17;;;16.80;77.50;;;;;;4191859;28;20489;-47
2021/05/20 08:29:37;;;;;;;0.17;0.17;;;16.80;77.80;;;;;;4185414;28;20132;-48
2021/05/20 08:31:59;;;;;;;0.00;0.00;;;16.80;78.10;;;;;;4185459;28;20120;-48
2021/05/20 08:34:21;;;;;;;0.20;0.20;;;16.70;78.30;;;;;;4176975;28;20053;-51
2021/05/20 08:36:43;;;;;;;0.05;0.05;;;16.80;78.00;;;;;;4176585;28;20136;-49
2021/05/20 08:39:05;;;;;;;0.00;0.00;;;16.70;78.60;;;;;;4190272;28;20143;-47
2021/05/20 08:41:28;;;;;;;0.00;0.00;;;16.80;78.00;;;;;;4187533;28;20053;-46
2021/05/20 08:43:50;;;;;;;0.38;0.38;;;16.80;78.20;;;;;;4183258;28;20465;-46
2021/05/20 08:46:11;;;;;;;0.00;0.00;;;16.80;77.50;;;;;;4189478;28;20064;-50
2021/05/20 08:48:33;;;;;;;0.73;0.73;;;16.80;77.20;;;;;;4195789;28;20498;-48
2021/05/20 08:50:57;;;;;;;0.00;0.00;;;16.90;76.90;;;;;;4187417;28;20491;-43
2021/05/20 08:53:19;;;;;;;0.00;0.00;;;16.90;76.90;;;;;;4185036;28;20675;-47
2021/05/20 08:55:41;;;;;;;0.17;0.17;;;16.90;78.00;;;;;;4187541;28;20093;-49
2021/05/20 08:58:04;;;;;;;0.47;0.47;;;16.90;77.10;;;;;;4176461;28;20060;-48
2021/05/20 09:00:27;;;;;;;0.63;0.63;;;17.00;77.80;;;;;;4175064;28;20063;-45
2021/05/20 09:02:50;;;;;;;0.90;0.80;;;16.90;77.60;;;;;;4175146;28;20057;-44
2021/05/20 09:05:17;;;;;;;0.00;0.00;;;17.00;77.20;;;;;;4174715;28;20411;-46
2021/05/20 09:07:42;;;;;;;0.00;0.00;;;17.00;77.00;;;;;;4181944;28;20494;-45
2021/05/20 09:10:19;;;;;;;0.85;0.85;;;17.00;76.70;;;;;;4185821;28;20114;-48
2021/05/20 09:12:41;;;;;;;0.00;0.00;;;17.10;77.10;;;;;;4190040;28;20051;-48
2021/05/20 09:15:13;;;;;;;0.15;0.15;;;17.00;77.10;;;;;;4192540;28;20052;-49
2021/05/20 09:17:34;;;;;;;3.30;1.63;;;17.10;77.10;;;;;;4191207;28;20133;-45
2021/05/20 09:20:00;;;;;;;0.10;0.10;;;17.00;77.50;;;;;;4195235;28;20501;-47
2021/05/20 09:22:21;;;;;;;0.25;0.25;;;17.00;77.80;;;;;;4200597;28;20056;-46
2021/05/20 09:24:47;;;;;;;0.52;0.52;;;17.10;77.90;;;;;;4207986;28;20044;-47
2021/05/20 09:27:23;;;;;;;0.00;0.00;;;17.00;77.90;;;;;;4196656;28;20078;-51
2021/05/20 09:30:06;;;;;;;0.30;0.30;;;17.10;77.80;;;;;;4205640;28;20054;-51
2021/05/20 09:32:35;;;;;;;0.32;0.32;;;17.10;77.20;;;;;;4206567;28;20398;-46
2021/05/20 09:35:00;;;;;;;0.30;0.30;;;17.10;76.50;;;;;;4205717;28;20486;-47
2021/05/20 09:37:22;;;;;;;0.75;0.75;;;17.10;76.20;;;;;;4198742;28;20551;-46
2021/05/20 09:39:58;;;;;;;0.00;0.00;;;17.10;76.00;;;;;;4190676;28;20121;-46
2021/05/20 09:42:20;;;;;;;1.13;0.50;;;17.10;76.10;;;;;;4199994;28;20055;-46
2021/05/20 09:44:42;;;;;;;0.20;0.20;;;17.10;75.90;;;;;;4207851;28;20254;-50
2021/05/20 09:47:14;;;;;;;0.38;0.38;;;17.10;75.30;;;;;;4191022;28;20049;-48
2021/05/20 09:49:56;;;;;;;0.00;0.00;;;17.20;74.80;;;;;;4194320;28;20127;-49
2021/05/20 09:52:22;;;;;;;1.13;1.02;;;17.20;74.30;;;;;;4190869;28;20052;-52
2021/05/20 09:54:45;;;;;;;0.15;0.15;;;17.30;74.30;;;;;;4191175;28;20082;-50
2021/05/20 09:57:25;;;;;;;0.05;0.05;;;17.30;74.50;;;;;;4197661;28;20491;-51
2021/05/20 09:59:59;;;;;;;10.98;1.33;;;17.30;74.20;;;;;;4207418;28;20052;-49
2021/05/20 10:02:21;;;;;;;0.20;0.20;;;17.30;73.90;;;;;;4191093;28;20786;-49
2021/05/20 10:04:43;;;;;;;0.00;0.00;;;17.40;73.70;;;;;;4191993;28;20052;-45
2021/05/20 10:07:05;;;;;;;0.00;0.00;;;17.40;73.70;;;;;;4190985;28;20080;-47
2021/05/20 10:09:27;;;;;;;0.03;0.03;;;17.40;73.90;;;;;;4190625;28;20132;-45
2021/05/20 10:11:50;;;;;;;0.00;0.00;;;17.40;73.90;;;;;;4193562;28;20118;-45
2021/05/20 10:14:12;;;;;;;0.45;0.45;;;17.40;73.70;;;;;;4195214;28;20052;-47
2021/05/20 10:16:34;;;;;;;0.08;0.08;;;17.40;74.10;;;;;;4197738;28;20735;-46
2021/05/20 10:18:57;;;;;;;0.20;0.20;;;17.40;74.10;;;;;;4180463;28;20045;-46
2021/05/20 10:21:19;;;;;;;3.05;1.00;;;17.40;73.90;;;;;;4182068;28;20060;-51
2021/05/20 10:23:42;;;;;;;2.53;1.00;;;17.40;74.00;;;;;;4193958;28;20727;-47
2021/05/20 10:26:05;;;;;;;0.03;0.03;;;17.40;74.10;;;;;;4177568;28;20049;-45
2021/05/20 10:28:28;;;;;;;0.15;0.15;;;17.40;74.00;;;;;;4194272;28;20098;-46
2021/05/20 10:30:52;;;;;;;0.00;0.00;;;17.50;73.90;;;;;;4197978;28;20153;-46
2021/05/20 10:33:15;;;;;;;0.43;0.32;;;17.40;73.60;;;;;;4198244;28;20071;-49
2021/05/20 10:35:43;;;;;;;0.00;0.00;;;17.50;73.40;;;;;;4193940;28;20102;-45
2021/05/20 10:38:05;;;;;;;0.70;0.70;;;17.50;73.10;;;;;;4194309;28;20106;-46
2021/05/20 10:40:32;;;;;;;0.00;0.00;;;17.50;73.80;;;;;;4199135;28;20131;-45
2021/05/20 10:43:05;;;;;;;0.10;0.10;;;17.50;72.80;;;;;;4201586;28;20122;-45
2021/05/20 10:45:28;;;;;;;0.10;0.10;;;17.50;72.80;;;;;;4191787;28;20114;-48
2021/05/20 10:48:18;;;;;;;0.08;0.08;;;17.50;72.70;;;;;;4208658;28;20627;-48
2021/05/20 10:51:02;;;;;;;0.13;0.13;;;17.50;72.50;;;;;;4209974;28;20200;-51
2021/05/20 10:53:50;;;;;;;0.00;0.00;;;17.50;72.40;;;;;;4200717;28;20102;-48
2021/05/20 10:56:54;;;;;;;0.00;0.00;;;17.60;72.20;;;;;;4188904;28;20487;-47
2021/05/20 10:59:46;;;;;;;0.30;0.30;;;17.60;72.10;;;;;;4189363;28;20116;-46
2021/05/20 11:02:16;;;;;;;0.40;0.40;;;17.60;71.80;;;;;;4191527;28;20078;-52
2021/05/20 11:04:39;;;;;;;0.10;0.10;;;17.60;71.90;;;;;;4183731;28;20132;-55
2021/05/20 11:07:01;;;;;;;0.30;0.30;;;17.70;71.70;;;;;;4176775;28;20056;-46
2021/05/20 11:09:47;;;;;;;0.00;0.00;;;17.70;71.60;;;;;;4176702;28;20048;-48
2021/05/20 11:12:09;;;;;;;0.00;0.00;;;17.70;71.50;;;;;;4190535;28;20453;-46
2021/05/20 11:14:38;;;;;;;0.20;0.20;;;17.70;71.60;;;;;;4196092;28;20502;-48
2021/05/20 11:17:00;;;;;;;0.00;0.00;;;17.70;71.50;;;;;;4200190;28;20106;-47
2021/05/20 11:19:28;;;;;;;0.00;0.00;;;17.70;71.50;;;;;;4184244;28;20053;-48
2021/05/20 11:22:11;;;;;;;0.00;0.00;;;17.70;71.80;;;;;;4186397;28;20050;-47
2021/05/20 11:24:38;;;;;;;0.00;0.00;;;17.70;71.90;;;;;;4198277;28;20049;-47
2021/05/20 11:27:01;;;;;;;2.50;0.52;;;17.70;72.00;;;;;;4201902;28;20059;-46
2021/05/20 11:29:25;;;;;;;0.20;0.20;;;17.70;72.10;;;;;;4209771;28;20471;-49
2021/05/20 11:31:48;;;;;;;0.30;0.30;;;17.60;72.30;;;;;;4207955;28;20138;-50
2021/05/20 11:36:54;;;;;;;0.00;0.00;;;17.60;72.80;;;;;;4205379;28;20499;-46
2021/05/20 11:39:18;;;;;;;0.22;0.22;;;17.60;72.60;;;;;;4193343;28;20048;-50
2021/05/20 11:41:42;;;;;;;0.05;0.05;;;17.60;72.90;;;;;;4192724;28;20052;-52
2021/05/20 11:44:11;;;;;;;0.00;0.00;;;17.60;73.30;;;;;;4199562;28;20050;-48
2021/05/20 11:46:33;;;;;;;0.40;0.40;;;17.60;73.20;;;;;;4208998;28;20044;-48
2021/05/20 11:48:59;;;;;;;0.93;0.93;;;17.50;73.30;;;;;;4203163;28;20529;-49
2021/05/20 11:51:39;;;;;;;0.45;0.45;;;17.50;73.40;;;;;;4189387;28;20552;-48
2021/05/20 11:54:08;;;;;;;0.00;0.00;;;17.50;73.40;;;;;;4176969;28;20053;-48
2021/05/20 11:56:37;;;;;;;0.00;0.00;;;17.50;73.50;;;;;;4189085;28;20141;-51
2021/05/20 11:58:59;;;;;;;0.22;0.22;;;17.60;73.50;;;;;;4185924;28;20036;-51
2021/05/20 12:01:22;;;;;;;7.68;2.30;;;17.60;73.50;;;;;;4194868;28;20449;-45
2021/05/20 12:03:44;;;;;;;0.20;0.20;;;17.60;73.50;;;;;;4179362;28;20041;-46
2021/05/20 12:06:06;;;;;;;0.20;0.20;;;17.60;73.60;;;;;;4198689;28;20130;-48
2021/05/20 12:08:28;;;;;;;12.20;1.10;;;17.60;73.50;;;;;;4206632;28;20486;-49
2021/05/20 12:10:53;;;;;;;1.88;1.45;;;17.70;73.50;;;;;;4204238;28;20051;-51
2021/05/20 12:13:15;;;;;;;0.57;0.57;;;17.70;73.30;;;;;;4209074;28;20616;-48
2021/05/20 12:15:36;;;;;;;0.32;0.32;;;17.70;73.00;;;;;;4207101;28;20540;-49
2021/05/20 12:17:59;;;;;;;0.10;0.10;;;17.70;73.30;;;;;;4207078;28;20097;-48
2021/05/20 12:20:23;;;;;;;0.35;0.35;;;17.70;71.90;;;;;;4208557;28;20052;-47
2021/05/20 12:22:46;;;;;;;7.38;1.85;;;17.80;71.50;;;;;;4201871;28;20139;-50
2021/05/20 12:25:10;;;;;;;0.40;0.40;;;17.80;71.10;;;;;;4199615;28;20139;-46
2021/05/20 12:27:43;;;;;;;0.10;0.10;;;17.80;70.50;;;;;;4192036;28;20587;-47
2021/05/20 12:30:07;;;;;;;0.22;0.22;;;17.90;69.80;;;;;;4191814;28;20106;-49
2021/05/20 12:32:30;;;;;;;0.52;0.52;;;17.90;69.40;;;;;;4191740;28;20441;-50
2021/05/20 12:35:29;;;;;;;0.00;0.00;;;18.00;69.00;;;;;;4195126;28;20525;-50
2021/05/20 12:38:04;;;;;;;0.10;0.10;;;18.00;68.30;;;;;;4202319;28;20048;-49